KCN09 WARR-WALL
Flight info
| Callsign | KCN09 |
|---|---|
| Flight time | 1h 16m |
| Altitude | 39000 |
| Route | RAMPY T13 IKAPI T11 KAYAN |
| Aircraft | B738/M-SDE2E3FGHIRWXY/LB1 |
Departure
| Time | 2026-04-30 13:36 |
|---|---|
| Airport | Juanda International Airport (WARR) |
Arrival
| Time | 2026-04-30 14:52 |
|---|---|
| Airport | Sultan Aji Muhammad Sulaiman Sepinggan International Airport (WALL) |
| Time | Latitude | Longitude | Altitude | Speed | Heading |
|---|---|---|---|---|---|
| 2026-04-30 13:16 | -7.38405 | 112.78414 | 8 ft | 0 kts | 189° |
| 2026-04-30 13:26 | -7.38379 | 112.78418 | 8 ft | 4 kts | 189° |
| 2026-04-30 13:26 | -7.38340 | 112.78405 | 8 ft | 4 kts | 97° |
| 2026-04-30 13:27 | -7.38338 | 112.78374 | 10 ft | 0 kts | 104° |
| 2026-04-30 13:30 | -7.38361 | 112.78470 | 8 ft | 9 kts | 104° |
| 2026-04-30 13:31 | -7.38378 | 112.78607 | 9 ft | 12 kts | 62° |
| 2026-04-30 13:31 | -7.38178 | 112.78707 | 8 ft | 13 kts | 91° |
| 2026-04-30 13:32 | -7.38220 | 112.78970 | 9 ft | 24 kts | 99° |
| 2026-04-30 13:32 | -7.38283 | 112.79361 | 8 ft | 29 kts | 99° |
| 2026-04-30 13:33 | -7.38331 | 112.79657 | 8 ft | 24 kts | 99° |
| 2026-04-30 13:33 | -7.38382 | 112.80007 | 8 ft | 20 kts | 79° |
| 2026-04-30 13:34 | -7.38293 | 112.80044 | 7 ft | 7 kts | 335° |
| 2026-04-30 13:34 | -7.38190 | 112.79976 | 6 ft | 6 kts | 284° |
| 2026-04-30 13:35 | -7.38183 | 112.79920 | 6 ft | 21 kts | 277° |
| 2026-04-30 13:35 | -7.37990 | 112.78696 | 13 ft | 148 kts | 277° |
| 2026-04-30 13:36 | -7.37586 | 112.76438 | 1050 ft | 172 kts | 278° |
| 2026-04-30 13:36 | -7.37399 | 112.75248 | 1718 ft | 173 kts | 278° |
| 2026-04-30 13:36 | -7.36985 | 112.72808 | 3037 ft | 188 kts | 286° |
| 2026-04-30 13:37 | -7.36142 | 112.71707 | 3273 ft | 216 kts | 332° |
| 2026-04-30 13:37 | -7.33037 | 112.72123 | 3670 ft | 261 kts | 30° |
| 2026-04-30 13:38 | -7.29842 | 112.74133 | 5051 ft | 274 kts | 33° |
| 2026-04-30 13:38 | -7.28770 | 112.74815 | 5577 ft | 276 kts | 33° |
| 2026-04-30 13:38 | -7.24916 | 112.77188 | 7334 ft | 282 kts | 32° |
| 2026-04-30 13:39 | -7.22057 | 112.78890 | 8553 ft | 287 kts | 31° |
| 2026-04-30 13:39 | -7.17992 | 112.81266 | 10206 ft | 295 kts | 31° |
| 2026-04-30 13:40 | -7.16159 | 112.82329 | 10465 ft | 315 kts | 31° |
| 2026-04-30 13:40 | -7.14873 | 112.83074 | 10568 ft | 329 kts | 31° |
| 2026-04-30 13:40 | -7.12831 | 112.84253 | 10857 ft | 344 kts | 31° |
| 2026-04-30 13:40 | -7.10733 | 112.85462 | 11409 ft | 349 kts | 31° |
| 2026-04-30 13:41 | -7.08622 | 112.86675 | 12067 ft | 351 kts | 31° |
| 2026-04-30 13:41 | -7.06494 | 112.87896 | 12736 ft | 353 kts | 31° |
| 2026-04-30 13:41 | -7.04355 | 112.89124 | 13407 ft | 355 kts | 31° |
| 2026-04-30 13:41 | -7.02202 | 112.90360 | 14023 ft | 358 kts | 31° |
| 2026-04-30 13:42 | -7.00783 | 112.91175 | 14396 ft | 361 kts | 31° |
| 2026-04-30 13:42 | -7.00102 | 112.91566 | 14576 ft | 362 kts | 31° |
| 2026-04-30 13:42 | -6.95916 | 112.93968 | 15674 ft | 368 kts | 31° |
| 2026-04-30 13:43 | -6.93677 | 112.95253 | 16254 ft | 372 kts | 31° |
| 2026-04-30 13:43 | -6.91516 | 112.96493 | 16799 ft | 375 kts | 31° |
| 2026-04-30 13:43 | -6.89418 | 112.97697 | 17324 ft | 379 kts | 31° |
| 2026-04-30 13:43 | -6.87120 | 112.99015 | 17882 ft | 382 kts | 31° |
| 2026-04-30 13:44 | -6.84863 | 113.00310 | 18384 ft | 385 kts | 31° |
| 2026-04-30 13:44 | -6.82523 | 113.01652 | 18857 ft | 388 kts | 31° |
| 2026-04-30 13:44 | -6.80168 | 113.03002 | 19342 ft | 391 kts | 31° |
| 2026-04-30 13:44 | -6.77793 | 113.04364 | 19814 ft | 394 kts | 31° |
| 2026-04-30 13:45 | -6.73003 | 113.07110 | 20732 ft | 399 kts | 31° |
| 2026-04-30 13:45 | -6.70573 | 113.08503 | 21181 ft | 402 kts | 31° |
| 2026-04-30 13:45 | -6.68159 | 113.09887 | 21624 ft | 405 kts | 31° |
| 2026-04-30 13:46 | -6.65670 | 113.11313 | 22057 ft | 408 kts | 31° |
| 2026-04-30 13:46 | -6.63227 | 113.12713 | 22468 ft | 411 kts | 31° |
| 2026-04-30 13:46 | -6.60741 | 113.14138 | 22889 ft | 413 kts | 31° |
| 2026-04-30 13:46 | -6.58227 | 113.15577 | 23301 ft | 416 kts | 31° |
| 2026-04-30 13:47 | -6.55697 | 113.17027 | 23661 ft | 419 kts | 31° |
| 2026-04-30 13:47 | -6.53153 | 113.18484 | 23992 ft | 421 kts | 31° |
| 2026-04-30 13:47 | -6.50595 | 113.19949 | 24336 ft | 423 kts | 31° |
| 2026-04-30 13:47 | -6.48028 | 113.21418 | 24671 ft | 425 kts | 31° |
| 2026-04-30 13:48 | -6.45450 | 113.22895 | 24993 ft | 427 kts | 31° |
| 2026-04-30 13:48 | -6.42858 | 113.24379 | 25321 ft | 430 kts | 31° |
| 2026-04-30 13:48 | -6.40255 | 113.25869 | 25647 ft | 431 kts | 31° |
| 2026-04-30 13:48 | -6.37638 | 113.27367 | 25966 ft | 433 kts | 31° |
| 2026-04-30 13:49 | -6.35013 | 113.28869 | 26291 ft | 435 kts | 31° |
| 2026-04-30 13:49 | -6.32380 | 113.30376 | 26609 ft | 437 kts | 31° |
| 2026-04-30 13:49 | -6.29767 | 113.31872 | 26903 ft | 439 kts | 31° |
| 2026-04-30 13:49 | -6.27103 | 113.33396 | 27183 ft | 441 kts | 31° |
| 2026-04-30 13:50 | -6.24417 | 113.34913 | 27468 ft | 444 kts | 30° |
| 2026-04-30 13:50 | -6.18860 | 113.37709 | 28028 ft | 449 kts | 27° |
| 2026-04-30 13:50 | -6.16033 | 113.39062 | 28306 ft | 451 kts | 27° |
| 2026-04-30 13:51 | -6.13195 | 113.40416 | 28599 ft | 452 kts | 27° |
| 2026-04-30 13:51 | -6.10348 | 113.41781 | 28843 ft | 454 kts | 27° |
| 2026-04-30 13:51 | -6.07489 | 113.43162 | 29104 ft | 456 kts | 27° |
| 2026-04-30 13:51 | -6.04624 | 113.44553 | 29357 ft | 458 kts | 27° |
| 2026-04-30 13:52 | -6.01745 | 113.45956 | 29607 ft | 460 kts | 27° |
| 2026-04-30 13:52 | -5.98897 | 113.47347 | 29854 ft | 462 kts | 27° |
| 2026-04-30 13:52 | -5.95999 | 113.48763 | 30082 ft | 464 kts | 27° |
| 2026-04-30 13:52 | -5.93090 | 113.50184 | 30269 ft | 465 kts | 27° |
| 2026-04-30 13:53 | -5.90177 | 113.51607 | 30479 ft | 467 kts | 27° |
| 2026-04-30 13:53 | -5.87251 | 113.53036 | 30687 ft | 468 kts | 27° |
| 2026-04-30 13:53 | -5.84314 | 113.54470 | 30880 ft | 470 kts | 27° |
| 2026-04-30 13:53 | -5.81364 | 113.55909 | 31081 ft | 471 kts | 27° |
| 2026-04-30 13:54 | -5.78412 | 113.57350 | 31328 ft | 471 kts | 27° |
| 2026-04-30 13:54 | -5.75472 | 113.58784 | 31637 ft | 469 kts | 27° |
| 2026-04-30 13:54 | -5.72545 | 113.60212 | 31954 ft | 467 kts | 27° |
| 2026-04-30 13:54 | -5.69616 | 113.61640 | 32238 ft | 467 kts | 27° |
| 2026-04-30 13:55 | -5.66701 | 113.63062 | 32510 ft | 466 kts | 27° |
| 2026-04-30 13:55 | -5.63781 | 113.64486 | 32820 ft | 465 kts | 27° |
| 2026-04-30 13:55 | -5.60875 | 113.65903 | 33145 ft | 464 kts | 27° |
| 2026-04-30 13:55 | -5.57975 | 113.67317 | 33470 ft | 462 kts | 27° |
| 2026-04-30 13:56 | -5.55088 | 113.68725 | 33779 ft | 461 kts | 27° |
| 2026-04-30 13:56 | -5.52203 | 113.70132 | 34079 ft | 460 kts | 27° |
| 2026-04-30 13:56 | -5.49366 | 113.71515 | 34331 ft | 459 kts | 27° |
| 2026-04-30 13:56 | -5.46489 | 113.72917 | 34567 ft | 459 kts | 26° |
| 2026-04-30 13:57 | -5.43610 | 113.74320 | 34802 ft | 459 kts | 26° |
| 2026-04-30 13:57 | -5.40736 | 113.75721 | 35036 ft | 459 kts | 26° |
| 2026-04-30 13:57 | -5.37859 | 113.77122 | 35254 ft | 459 kts | 26° |
| 2026-04-30 13:57 | -5.34974 | 113.78528 | 35479 ft | 459 kts | 26° |
| 2026-04-30 13:58 | -5.32100 | 113.79928 | 35717 ft | 459 kts | 26° |
| 2026-04-30 13:58 | -5.26344 | 113.82732 | 36147 ft | 459 kts | 26° |
| 2026-04-30 13:58 | -5.23467 | 113.84133 | 36366 ft | 459 kts | 26° |
| 2026-04-30 13:59 | -5.20628 | 113.85516 | 36576 ft | 459 kts | 26° |
| 2026-04-30 13:59 | -5.17717 | 113.86933 | 36793 ft | 459 kts | 26° |
| 2026-04-30 13:59 | -5.14879 | 113.88315 | 37001 ft | 459 kts | 26° |
| 2026-04-30 13:59 | -5.12004 | 113.89714 | 37223 ft | 459 kts | 26° |
| 2026-04-30 14:00 | -5.09128 | 113.91114 | 37415 ft | 459 kts | 26° |
| 2026-04-30 14:00 | -5.03379 | 113.93913 | 37831 ft | 459 kts | 26° |
| 2026-04-30 14:00 | -5.00509 | 113.95310 | 38037 ft | 458 kts | 26° |
| 2026-04-30 14:01 | -4.97637 | 113.96707 | 38230 ft | 458 kts | 26° |
| 2026-04-30 14:01 | -4.94797 | 113.98157 | 38426 ft | 458 kts | 31° |
| 2026-04-30 14:01 | -4.92084 | 113.99852 | 38625 ft | 457 kts | 33° |
| 2026-04-30 14:01 | -4.89432 | 114.01615 | 38806 ft | 457 kts | 34° |
| 2026-04-30 14:02 | -4.84182 | 114.05187 | 38837 ft | 459 kts | 34° |
| 2026-04-30 14:02 | -4.78899 | 114.08750 | 38840 ft | 455 kts | 34° |
| 2026-04-30 14:03 | -4.73644 | 114.12250 | 38842 ft | 452 kts | 33° |
| 2026-04-30 14:03 | -4.68420 | 114.15712 | 38847 ft | 449 kts | 33° |
| 2026-04-30 14:04 | -4.63226 | 114.19150 | 38850 ft | 446 kts | 33° |
| 2026-04-30 14:04 | -4.58055 | 114.22574 | 38854 ft | 445 kts | 33° |
| 2026-04-30 14:05 | -4.52893 | 114.25992 | 38855 ft | 445 kts | 33° |
| 2026-04-30 14:05 | -4.47727 | 114.29412 | 38857 ft | 445 kts | 33° |
| 2026-04-30 14:06 | -4.39955 | 114.34557 | 38854 ft | 447 kts | 33° |
| 2026-04-30 14:07 | -4.32159 | 114.39716 | 38859 ft | 449 kts | 34° |
| 2026-04-30 14:08 | -4.24369 | 114.44870 | 38850 ft | 449 kts | 34° |
| 2026-04-30 14:08 | -4.16553 | 114.50040 | 38853 ft | 448 kts | 33° |
| 2026-04-30 14:09 | -4.11355 | 114.53478 | 38851 ft | 447 kts | 33° |
| 2026-04-30 14:10 | -4.03586 | 114.58614 | 38841 ft | 445 kts | 33° |
| 2026-04-30 14:10 | -3.98416 | 114.62032 | 38851 ft | 444 kts | 33° |
| 2026-04-30 14:11 | -3.93256 | 114.65442 | 38843 ft | 443 kts | 33° |
| 2026-04-30 14:11 | -3.88113 | 114.68841 | 38845 ft | 443 kts | 34° |
| 2026-04-30 14:12 | -3.83003 | 114.72217 | 38848 ft | 442 kts | 34° |
| 2026-04-30 14:12 | -3.77869 | 114.75609 | 38846 ft | 442 kts | 34° |
| 2026-04-30 14:13 | -3.72738 | 114.78998 | 38837 ft | 442 kts | 33° |
| 2026-04-30 14:13 | -3.67596 | 114.82395 | 38836 ft | 443 kts | 33° |
| 2026-04-30 14:14 | -3.62445 | 114.85796 | 38842 ft | 444 kts | 33° |
| 2026-04-30 14:14 | -3.57283 | 114.89205 | 38836 ft | 445 kts | 33° |
| 2026-04-30 14:15 | -3.52110 | 114.92620 | 38834 ft | 446 kts | 33° |
| 2026-04-30 14:15 | -3.46958 | 114.96021 | 38836 ft | 447 kts | 33° |
| 2026-04-30 14:16 | -3.41761 | 114.99451 | 38834 ft | 448 kts | 33° |
| 2026-04-30 14:16 | -3.36558 | 115.02884 | 38827 ft | 448 kts | 33° |
| 2026-04-30 14:17 | -3.31338 | 115.06329 | 38835 ft | 449 kts | 33° |
| 2026-04-30 14:17 | -3.26121 | 115.09771 | 38841 ft | 450 kts | 33° |
| 2026-04-30 14:18 | -3.20893 | 115.13220 | 38832 ft | 450 kts | 33° |
| 2026-04-30 14:18 | -3.13046 | 115.18396 | 38833 ft | 450 kts | 33° |
| 2026-04-30 14:19 | -3.05233 | 115.23548 | 38838 ft | 450 kts | 33° |
| 2026-04-30 14:20 | -3.00006 | 115.26994 | 38845 ft | 449 kts | 33° |
| 2026-04-30 14:20 | -2.92176 | 115.32156 | 38850 ft | 449 kts | 33° |
| 2026-04-30 14:21 | -2.86958 | 115.35596 | 38840 ft | 449 kts | 33° |
| 2026-04-30 14:22 | -2.79136 | 115.40751 | 38846 ft | 448 kts | 33° |
| 2026-04-30 14:22 | -2.73894 | 115.44205 | 38397 ft | 455 kts | 33° |
| 2026-04-30 14:22 | -2.71252 | 115.45946 | 37869 ft | 454 kts | 33° |
| 2026-04-30 14:23 | -2.66000 | 115.49407 | 36729 ft | 451 kts | 33° |
| 2026-04-30 14:23 | -2.60763 | 115.52857 | 35645 ft | 449 kts | 33° |
| 2026-04-30 14:24 | -2.55615 | 115.56249 | 34768 ft | 443 kts | 33° |
| 2026-04-30 14:24 | -2.53043 | 115.57943 | 34325 ft | 440 kts | 33° |
| 2026-04-30 14:25 | -2.47953 | 115.61296 | 33391 ft | 435 kts | 33° |
| 2026-04-30 14:25 | -2.42934 | 115.64602 | 32503 ft | 429 kts | 33° |
| 2026-04-30 14:26 | -2.37985 | 115.67861 | 31656 ft | 422 kts | 33° |
| 2026-04-30 14:26 | -2.35542 | 115.69470 | 31242 ft | 419 kts | 34° |
| 2026-04-30 14:26 | -2.31513 | 115.72123 | 30547 ft | 415 kts | 34° |
| 2026-04-30 14:27 | -2.28301 | 115.74239 | 29990 ft | 412 kts | 34° |
| 2026-04-30 14:27 | -2.26719 | 115.75281 | 29660 ft | 411 kts | 34° |
| 2026-04-30 14:27 | -2.23579 | 115.77360 | 29063 ft | 406 kts | 37° |
| 2026-04-30 14:28 | -2.20269 | 115.80626 | 28427 ft | 396 kts | 49° |
| 2026-04-30 14:28 | -2.18429 | 115.82662 | 28001 ft | 393 kts | 49° |
| 2026-04-30 14:28 | -2.16629 | 115.84657 | 27605 ft | 390 kts | 49° |
| 2026-04-30 14:28 | -2.14811 | 115.86661 | 27187 ft | 387 kts | 49° |
| 2026-04-30 14:29 | -2.11193 | 115.90614 | 26375 ft | 383 kts | 48° |
| 2026-04-30 14:29 | -2.07602 | 115.94515 | 25567 ft | 379 kts | 48° |
| 2026-04-30 14:30 | -2.02270 | 116.00298 | 24335 ft | 375 kts | 49° |
| 2026-04-30 14:31 | -1.98741 | 116.04126 | 23519 ft | 373 kts | 49° |
| 2026-04-30 14:31 | -1.95255 | 116.07907 | 22641 ft | 370 kts | 49° |
| 2026-04-30 14:31 | -1.93520 | 116.09789 | 22228 ft | 367 kts | 49° |
| 2026-04-30 14:32 | -1.90085 | 116.13515 | 21438 ft | 362 kts | 49° |
| 2026-04-30 14:32 | -1.88387 | 116.15356 | 21053 ft | 359 kts | 49° |
| 2026-04-30 14:32 | -1.86696 | 116.17190 | 20669 ft | 357 kts | 49° |
| 2026-04-30 14:33 | -1.85018 | 116.19012 | 20283 ft | 355 kts | 49° |
| 2026-04-30 14:33 | -1.81695 | 116.22622 | 19531 ft | 351 kts | 49° |
| 2026-04-30 14:33 | -1.80046 | 116.24414 | 19142 ft | 350 kts | 49° |
| 2026-04-30 14:34 | -1.78402 | 116.26201 | 18748 ft | 349 kts | 49° |
| 2026-04-30 14:34 | -1.76762 | 116.27983 | 18360 ft | 347 kts | 49° |
| 2026-04-30 14:34 | -1.75128 | 116.29760 | 17939 ft | 346 kts | 49° |
| 2026-04-30 14:34 | -1.73502 | 116.31526 | 17536 ft | 344 kts | 49° |
| 2026-04-30 14:35 | -1.70309 | 116.34997 | 16824 ft | 337 kts | 49° |
| 2026-04-30 14:35 | -1.68739 | 116.36713 | 16574 ft | 331 kts | 49° |
| 2026-04-30 14:35 | -1.67200 | 116.38399 | 16325 ft | 326 kts | 49° |
| 2026-04-30 14:36 | -1.65671 | 116.40074 | 16082 ft | 324 kts | 49° |
| 2026-04-30 14:36 | -1.64155 | 116.41736 | 15848 ft | 323 kts | 49° |
| 2026-04-30 14:36 | -1.62638 | 116.43397 | 15610 ft | 323 kts | 49° |
| 2026-04-30 14:36 | -1.61126 | 116.45054 | 15370 ft | 322 kts | 49° |
| 2026-04-30 14:37 | -1.59615 | 116.46710 | 15131 ft | 322 kts | 49° |
| 2026-04-30 14:37 | -1.58100 | 116.48369 | 14890 ft | 322 kts | 49° |
| 2026-04-30 14:37 | -1.56590 | 116.50023 | 14650 ft | 322 kts | 49° |
| 2026-04-30 14:37 | -1.55098 | 116.51657 | 14414 ft | 322 kts | 49° |
| 2026-04-30 14:38 | -1.53591 | 116.53306 | 14172 ft | 322 kts | 49° |
| 2026-04-30 14:38 | -1.52174 | 116.55032 | 13879 ft | 322 kts | 60° |
| 2026-04-30 14:38 | -1.51273 | 116.57072 | 13486 ft | 321 kts | 70° |
| 2026-04-30 14:38 | -1.50502 | 116.59164 | 13049 ft | 320 kts | 71° |
| 2026-04-30 14:39 | -1.49741 | 116.61257 | 12631 ft | 319 kts | 70° |
| 2026-04-30 14:39 | -1.48979 | 116.63337 | 12218 ft | 318 kts | 70° |
| 2026-04-30 14:39 | -1.48209 | 116.65413 | 11825 ft | 317 kts | 70° |
| 2026-04-30 14:40 | -1.46665 | 116.69527 | 11033 ft | 315 kts | 70° |
| 2026-04-30 14:40 | -1.45903 | 116.71546 | 10675 ft | 313 kts | 70° |
| 2026-04-30 14:40 | -1.45134 | 116.73579 | 10308 ft | 312 kts | 70° |
| 2026-04-30 14:40 | -1.44368 | 116.75604 | 9938 ft | 311 kts | 70° |
| 2026-04-30 14:41 | -1.43620 | 116.77579 | 9931 ft | 297 kts | 70° |
| 2026-04-30 14:41 | -1.42905 | 116.79467 | 9882 ft | 285 kts | 70° |
| 2026-04-30 14:41 | -1.42220 | 116.81294 | 9722 ft | 276 kts | 70° |
| 2026-04-30 14:41 | -1.41564 | 116.83081 | 9222 ft | 274 kts | 70° |
| 2026-04-30 14:42 | -1.40911 | 116.84871 | 8730 ft | 274 kts | 70° |
| 2026-04-30 14:42 | -1.40259 | 116.86653 | 8272 ft | 272 kts | 70° |
| 2026-04-30 14:42 | -1.39616 | 116.88411 | 7977 ft | 266 kts | 70° |
| 2026-04-30 14:42 | -1.38982 | 116.90143 | 7733 ft | 266 kts | 70° |
| 2026-04-30 14:43 | -1.38341 | 116.91891 | 7521 ft | 271 kts | 70° |
| 2026-04-30 14:43 | -1.37691 | 116.93666 | 7287 ft | 272 kts | 70° |
| 2026-04-30 14:43 | -1.37040 | 116.95439 | 7052 ft | 272 kts | 70° |
| 2026-04-30 14:43 | -1.36386 | 116.97227 | 6676 ft | 275 kts | 70° |
| 2026-04-30 14:44 | -1.35728 | 116.99029 | 6313 ft | 277 kts | 70° |
| 2026-04-30 14:44 | -1.35064 | 117.00849 | 5909 ft | 279 kts | 70° |
| 2026-04-30 14:44 | -1.34397 | 117.02673 | 5511 ft | 281 kts | 70° |
| 2026-04-30 14:44 | -1.33726 | 117.04512 | 5125 ft | 282 kts | 70° |
| 2026-04-30 14:45 | -1.33052 | 117.06356 | 4732 ft | 284 kts | 70° |
| 2026-04-30 14:45 | -1.32374 | 117.08213 | 4312 ft | 285 kts | 70° |
| 2026-04-30 14:45 | -1.31447 | 117.09951 | 3886 ft | 286 kts | 49° |
| 2026-04-30 14:45 | -1.29857 | 117.11117 | 3532 ft | 285 kts | 22° |
| 2026-04-30 14:46 | -1.27942 | 117.11482 | 3344 ft | 279 kts | 359° |
| 2026-04-30 14:46 | -1.26076 | 117.11090 | 3158 ft | 273 kts | 339° |
| 2026-04-30 14:46 | -1.24381 | 117.10375 | 3235 ft | 254 kts | 338° |
| 2026-04-30 14:46 | -1.22825 | 117.09699 | 3130 ft | 239 kts | 338° |
| 2026-04-30 14:47 | -1.21343 | 117.09056 | 3018 ft | 226 kts | 336° |
| 2026-04-30 14:47 | -1.20166 | 117.08107 | 2896 ft | 216 kts | 303° |
| 2026-04-30 14:47 | -1.19799 | 117.06723 | 2797 ft | 205 kts | 262° |
| 2026-04-30 14:47 | -1.20187 | 117.05411 | 2727 ft | 190 kts | 252° |
| 2026-04-30 14:48 | -1.20641 | 117.04169 | 2396 ft | 192 kts | 249° |
| 2026-04-30 14:48 | -1.21127 | 117.02985 | 2238 ft | 177 kts | 248° |
| 2026-04-30 14:48 | -1.21589 | 117.01885 | 2113 ft | 170 kts | 248° |
| 2026-04-30 14:48 | -1.22048 | 117.00794 | 2029 ft | 170 kts | 248° |
| 2026-04-30 14:49 | -1.22506 | 116.99707 | 1884 ft | 170 kts | 248° |
| 2026-04-30 14:49 | -1.22960 | 116.98630 | 1676 ft | 169 kts | 247° |
| 2026-04-30 14:49 | -1.23410 | 116.97559 | 1453 ft | 166 kts | 248° |
| 2026-04-30 14:49 | -1.23854 | 116.96504 | 1264 ft | 162 kts | 248° |
| 2026-04-30 14:50 | -1.24706 | 116.94482 | 845 ft | 156 kts | 248° |
| 2026-04-30 14:50 | -1.25119 | 116.93499 | 675 ft | 155 kts | 248° |
| 2026-04-30 14:51 | -1.25957 | 116.91566 | 295 ft | 148 kts | 248° |
| 2026-04-30 14:51 | -1.26354 | 116.90612 | 107 ft | 148 kts | 249° |
| 2026-04-30 14:51 | -1.26984 | 116.89104 | 23 ft | 58 kts | 246° |
| 2026-04-30 14:52 | -1.27030 | 116.88977 | 22 ft | 9 kts | 280° |
| 2026-04-30 14:52 | -1.26933 | 116.88918 | 23 ft | 8 kts | 336° |
| 2026-04-30 14:52 | -1.26883 | 116.88925 | 23 ft | 8 kts | 43° |
| 2026-04-30 14:53 | -1.26836 | 116.89019 | 25 ft | 7 kts | 65° |
| 2026-04-30 14:53 | -1.26816 | 116.89065 | 29 ft | 7 kts | 66° |
| 2026-04-30 14:54 | -1.26771 | 116.89167 | 30 ft | 9 kts | 66° |
| 2026-04-30 14:54 | -1.26714 | 116.89299 | 29 ft | 12 kts | 68° |
| 2026-04-30 14:55 | -1.26648 | 116.89462 | 26 ft | 14 kts | 68° |
| 2026-04-30 14:55 | -1.26612 | 116.89549 | 29 ft | 13 kts | 67° |
| 2026-04-30 14:55 | -1.26541 | 116.89714 | 27 ft | 12 kts | 66° |
| 2026-04-30 14:56 | -1.26448 | 116.89759 | 28 ft | 7 kts | 312° |
| 2026-04-30 14:56 | -1.26476 | 116.89664 | 28 ft | 6 kts | 245° |
| 2026-04-30 14:57 | -1.26454 | 116.89638 | 26 ft | 6 kts | 339° |
| 2026-04-30 14:57 | -1.26423 | 116.89625 | 26 ft | 2 kts | 337° |
| 2026-04-30 14:58 | -1.26405 | 116.89618 | 27 ft | 0 kts | 337° |